Brent, Florida
Current Conditions -  °F | °C
As of 5:53 AM on Sunday 21 Dec 2014 (Local Time) from KPNS Reporting Station
Haze Haze  
Wind Chill: 50°   Ceiling: 800
Heat Index: 50°   Visibility: 2.5mi
Dew Point: 50°   Wind: 7mph
Humidity: 100%   Direction: 30°NNE
Pressure: 30.1"   Gusts: NA
Location:  30.46°N, 87.24°W
Report Text: KPNS 211153Z 03006KT 2 1/2SM BR OVC008 10/10 A3010 RMK AO2 CIG 005V010 SLP194 70028 T01000100 10100 20094 51001
Loading
Personal Weather Stations






























Interactive Weather Map New forecast layout! Learn more

10-Day Weather Forecast

Advertisements
Track Severe Weather on mobile